createdAt,value
2022-09-07T00:04:38.451Z,23.80
2022-09-07T00:09:42.964Z,23.80
2022-09-07T00:14:46.070Z,23.80
2022-09-07T00:19:49.792Z,23.80
2022-09-07T00:24:54.244Z,23.80
2022-09-07T00:29:57.342Z,23.80
2022-09-07T00:35:00.446Z,23.80
2022-09-07T00:40:05.680Z,23.80
2022-09-07T00:45:13.247Z,23.80
2022-09-07T00:50:21.296Z,23.80
2022-09-07T00:55:27.589Z,23.80
2022-09-07T01:00:31.619Z,23.80
2022-09-07T01:05:39.071Z,23.80
2022-09-07T01:10:43.808Z,23.80
2022-09-07T01:15:53.078Z,23.80
2022-09-07T01:21:21.974Z,23.80
2022-09-07T01:27:12.638Z,23.80
2022-09-07T01:32:26.634Z,23.70
2022-09-07T01:37:34.659Z,23.80
2022-09-07T01:42:45.967Z,23.70
2022-09-07T01:47:54.423Z,23.80
2022-09-07T01:53:02.552Z,23.80
2022-09-07T01:58:13.115Z,23.70
2022-09-07T02:03:22.686Z,23.70
2022-09-07T02:08:32.187Z,23.70
2022-09-07T02:13:38.844Z,23.70
2022-09-07T02:18:47.059Z,23.70
2022-09-07T02:23:53.130Z,23.70
2022-09-07T02:28:57.019Z,23.70
2022-09-07T02:34:02.000Z,23.70
2022-09-07T02:39:05.191Z,23.70
2022-09-07T02:44:11.779Z,23.70
2022-09-07T02:49:27.643Z,23.70
2022-09-07T02:54:46.553Z,23.60
2022-09-07T03:00:02.605Z,23.60
2022-09-07T03:05:13.476Z,23.60
2022-09-07T03:10:17.733Z,23.60
2022-09-07T03:15:24.465Z,23.70
2022-09-07T03:20:28.965Z,23.60
2022-09-07T03:25:32.103Z,23.60
2022-09-07T03:30:35.284Z,23.60
2022-09-07T03:35:39.829Z,23.60
2022-09-07T03:40:42.933Z,23.60
2022-09-07T03:45:46.053Z,23.60
2022-09-07T03:50:59.138Z,23.60
2022-09-07T03:56:05.346Z,23.60
2022-09-07T04:01:10.372Z,23.60
2022-09-07T04:06:15.843Z,23.60
2022-09-07T04:11:20.054Z,23.60
2022-09-07T04:16:25.780Z,23.50
2022-09-07T04:21:31.778Z,23.50
2022-09-07T04:26:37.075Z,23.50
2022-09-07T04:31:40.193Z,23.50
2022-09-07T04:36:44.659Z,23.60
2022-09-07T04:41:47.771Z,23.50
2022-09-07T04:46:50.843Z,23.50
2022-09-07T04:51:55.403Z,23.50
2022-09-07T04:56:58.527Z,23.50
2022-09-07T05:02:01.637Z,23.50
2022-09-07T05:07:06.177Z,23.50
2022-09-07T05:12:09.466Z,23.50
2022-09-07T05:17:12.580Z,23.50
2022-09-07T05:22:17.111Z,23.50
2022-09-07T05:27:20.340Z,23.50
2022-09-07T05:32:23.631Z,23.50
2022-09-07T05:37:28.155Z,23.50
2022-09-07T05:42:31.578Z,23.50
2022-09-07T05:47:34.680Z,23.50
2022-09-07T05:52:39.150Z,23.60
2022-09-07T05:57:42.234Z,23.50
2022-09-07T06:02:46.592Z,23.40
2022-09-07T06:07:51.197Z,23.40
2022-09-07T06:12:54.601Z,23.30
2022-09-07T06:17:57.730Z,23.20
2022-09-07T06:23:02.187Z,23.20
2022-09-07T06:28:05.263Z,23.20
2022-09-07T06:33:08.359Z,23.10
2022-09-07T06:38:12.835Z,23.20
2022-09-07T06:43:15.937Z,23.30
2022-09-07T06:48:19.025Z,23.40
2022-09-07T06:53:40.525Z,23.40
2022-09-07T06:58:46.451Z,23.40
2022-09-07T07:03:49.682Z,23.60
2022-09-07T07:08:55.845Z,23.70
2022-09-07T07:13:59.964Z,23.70
2022-09-07T07:19:03.079Z,23.80
2022-09-07T07:24:08.367Z,23.80
2022-09-07T07:29:12.853Z,24.00
2022-09-07T07:34:17.988Z,24.10
2022-09-07T07:44:45.783Z,24.40
2022-09-07T07:49:49.460Z,24.40
2022-09-07T07:54:54.126Z,24.40
2022-09-07T07:59:57.279Z,24.50
2022-09-07T08:05:01.046Z,24.40
2022-09-07T08:10:07.555Z,24.40
2022-09-07T08:15:11.172Z,24.40
2022-09-07T08:20:14.363Z,24.50
2022-09-07T08:25:19.191Z,24.60
2022-09-07T08:30:22.307Z,24.60
2022-09-07T08:35:25.292Z,24.60
2022-09-07T08:40:30.239Z,24.60
2022-09-07T08:45:37.932Z,24.60
2022-09-07T08:50:47.093Z,24.60
2022-09-07T08:55:57.035Z,24.60
2022-09-07T09:06:27.968Z,24.70
2022-09-07T09:11:43.648Z,24.70
2022-09-07T09:16:52.293Z,24.70
2022-09-07T09:22:16.636Z,24.70
2022-09-07T09:27:20.989Z,24.80
2022-09-07T09:32:39.897Z,24.70
2022-09-07T09:37:44.196Z,24.80
2022-09-07T09:42:48.847Z,24.80
2022-09-07T09:47:54.745Z,24.90
2022-09-07T09:52:58.593Z,24.90
2022-09-07T10:08:58.196Z,25.00
2022-09-07T10:14:04.362Z,24.90
2022-09-07T10:19:07.400Z,25.00
2022-09-07T10:24:16.280Z,25.00
2022-09-07T10:29:30.325Z,24.90
2022-09-07T10:34:44.946Z,25.00
2022-09-07T10:40:03.392Z,25.00
2022-09-07T10:45:18.254Z,25.00
2022-09-07T10:50:31.215Z,25.00
2022-09-07T10:55:37.654Z,25.00
2022-09-07T11:00:52.333Z,25.00
2022-09-07T11:06:05.928Z,24.90
2022-09-07T11:11:17.123Z,25.00
2022-09-07T11:21:57.723Z,25.00
2022-09-07T11:27:07.858Z,25.00
2022-09-07T11:32:17.575Z,25.00
2022-09-07T11:37:25.093Z,25.00
2022-09-07T11:42:49.060Z,25.10
2022-09-07T11:47:59.088Z,25.10
2022-09-07T11:53:05.867Z,25.10
2022-09-07T11:58:35.247Z,25.10
2022-09-07T12:04:07.341Z,25.10
2022-09-07T12:09:24.402Z,25.10
2022-09-07T12:14:35.223Z,25.10
2022-09-07T12:19:39.571Z,25.10
2022-09-07T12:24:45.277Z,25.10
2022-09-07T12:29:48.541Z,25.10
2022-09-07T12:34:55.278Z,25.10
2022-09-07T12:40:32.337Z,25.10
2022-09-07T12:45:52.939Z,25.10
2022-09-07T12:51:02.293Z,25.10
2022-09-07T12:56:25.786Z,25.10
2022-09-07T13:01:37.857Z,25.10
2022-09-07T13:07:19.538Z,25.10
2022-09-07T13:17:57.356Z,25.20
2022-09-07T13:23:28.743Z,25.20
2022-09-07T13:28:54.838Z,25.20
2022-09-07T13:33:58.139Z,25.20
2022-09-07T13:39:01.159Z,25.20
2022-09-07T13:44:05.962Z,25.20
2022-09-07T13:49:19.324Z,25.20
2022-09-07T13:54:30.935Z,25.20
2022-09-07T13:59:36.979Z,25.20
2022-09-07T14:04:44.326Z,25.10
2022-09-07T14:09:48.830Z,25.20
2022-09-07T14:15:18.092Z,25.20
2022-09-07T14:20:22.411Z,25.20
2022-09-07T14:25:26.451Z,25.20
2022-09-07T14:30:33.249Z,25.20
2022-09-07T14:35:39.456Z,25.20
2022-09-07T14:40:42.818Z,25.30
2022-09-07T14:45:47.190Z,25.30
2022-09-07T14:51:01.027Z,25.30
2022-09-07T14:56:20.858Z,25.30
2022-09-07T15:01:41.762Z,25.20
2022-09-07T15:07:02.173Z,25.20
2022-09-07T15:12:27.307Z,25.20
2022-09-07T15:17:44.795Z,25.20
2022-09-07T15:22:48.065Z,25.20
2022-09-07T15:27:51.071Z,25.20
2022-09-07T15:32:56.860Z,25.20
2022-09-07T15:38:05.256Z,25.20
2022-09-07T15:43:20.002Z,25.20
2022-09-07T15:48:25.975Z,25.20
2022-09-07T15:58:56.071Z,25.30
2022-09-07T16:04:01.707Z,25.40
2022-09-07T16:09:07.429Z,25.40
2022-09-07T16:14:11.708Z,25.40
2022-09-07T16:19:20.627Z,25.40
2022-09-07T16:24:23.754Z,25.40
2022-09-07T16:29:26.782Z,25.40
2022-09-07T16:34:31.112Z,25.40
2022-09-07T16:39:34.111Z,25.40
2022-09-07T16:44:37.167Z,25.40
2022-09-07T16:49:41.639Z,25.50
2022-09-07T16:54:44.566Z,25.40
2022-09-07T16:59:49.162Z,25.40
2022-09-07T17:04:53.500Z,25.30
2022-09-07T17:09:56.583Z,25.30
2022-09-07T17:14:59.558Z,25.30
2022-09-07T17:20:04.410Z,25.20
2022-09-07T17:25:07.990Z,25.20
2022-09-07T17:30:11.775Z,25.10
2022-09-07T17:35:16.254Z,25.10
2022-09-07T17:40:19.298Z,25.10
2022-09-07T17:45:22.281Z,25.00
2022-09-07T17:50:26.585Z,25.10
2022-09-07T17:55:31.610Z,25.00
2022-09-07T18:00:35.406Z,25.00
2022-09-07T18:05:39.880Z,25.00
2022-09-07T18:16:12.160Z,25.00
2022-09-07T18:21:19.227Z,24.90
2022-09-07T18:26:22.255Z,24.90
2022-09-07T18:31:25.906Z,24.90
2022-09-07T18:36:31.083Z,24.90
2022-09-07T18:41:34.628Z,24.90
2022-09-07T18:46:37.609Z,24.90
2022-09-07T18:57:06.729Z,24.80
2022-09-07T19:02:10.565Z,24.80
2022-09-07T19:07:15.476Z,24.80
2022-09-07T19:12:18.412Z,24.80
2022-09-07T19:17:21.341Z,24.80
2022-09-07T19:22:27.265Z,24.80
2022-09-07T19:27:32.813Z,24.70
2022-09-07T19:32:35.816Z,24.70
2022-09-07T19:37:40.202Z,24.70
2022-09-07T19:42:43.211Z,24.60
2022-09-07T19:47:46.287Z,24.60
2022-09-07T19:52:50.851Z,24.50
2022-09-07T19:57:53.802Z,24.40
2022-09-07T20:02:56.746Z,24.30
2022-09-07T20:08:01.043Z,24.30
2022-09-07T20:13:04.581Z,24.20
2022-09-07T20:18:07.526Z,24.20
2022-09-07T20:23:11.823Z,24.10
2022-09-07T20:28:15.141Z,24.00
2022-09-07T20:33:18.607Z,24.00
2022-09-07T20:38:22.920Z,24.00
2022-09-07T20:43:26.200Z,24.00
2022-09-07T20:48:29.219Z,24.10
2022-09-07T20:53:33.733Z,24.10
2022-09-07T20:58:36.803Z,24.20
2022-09-07T21:03:40.007Z,24.20
2022-09-07T21:08:45.612Z,24.20
2022-09-07T21:13:49.094Z,24.20
2022-09-07T21:18:54.789Z,24.20
2022-09-07T21:24:00.905Z,24.20
2022-09-07T21:29:06.034Z,24.20
2022-09-07T21:34:10.015Z,24.20
2022-09-07T21:39:14.915Z,24.20
2022-09-07T21:44:18.293Z,24.20
2022-09-07T21:49:21.226Z,24.20
2022-09-07T21:54:25.710Z,24.20
2022-09-07T21:59:28.634Z,24.20
2022-09-07T22:04:31.602Z,24.20
2022-09-07T22:09:35.907Z,24.20
2022-09-07T22:14:39.056Z,24.20
2022-09-07T22:19:42.333Z,24.20
2022-09-07T22:24:46.639Z,24.20
2022-09-07T22:29:49.583Z,24.20
2022-09-07T22:34:52.691Z,24.20
2022-09-07T22:39:57.011Z,24.20
2022-09-07T22:44:59.984Z,24.20
2022-09-07T22:50:02.935Z,24.20
2022-09-07T22:55:08.408Z,24.20
2022-09-07T23:00:13.242Z,24.20
2022-09-07T23:05:16.363Z,24.20
2022-09-07T23:10:20.663Z,24.20
2022-09-07T23:15:23.824Z,24.20
2022-09-07T23:20:26.755Z,24.20
2022-09-07T23:25:31.063Z,24.20
2022-09-07T23:30:35.473Z,24.20
2022-09-07T23:35:38.414Z,24.20
2022-09-07T23:40:43.195Z,24.20
2022-09-07T23:45:46.118Z,24.20
2022-09-07T23:50:49.783Z,24.20
2022-09-07T23:55:54.127Z,24.10
